createdAt,value
2023-02-02T00:00:43.922Z,4.60
2023-02-02T00:05:53.583Z,4.50
2023-02-02T00:10:57.241Z,4.50
2023-02-02T00:16:20.525Z,4.50
2023-02-02T00:21:23.812Z,4.40
2023-02-02T00:26:26.910Z,4.30
2023-02-02T00:31:29.841Z,4.20
2023-02-02T00:36:32.947Z,4.10
2023-02-02T00:41:35.877Z,4.00
2023-02-02T00:46:41.234Z,3.90
2023-02-02T00:51:45.235Z,3.90
2023-02-02T00:56:48.408Z,3.90
2023-02-02T01:01:51.489Z,4.00
2023-02-02T01:06:54.410Z,4.00
2023-02-02T01:11:58.187Z,4.00
2023-02-02T01:17:01.001Z,3.90
2023-02-02T01:22:04.250Z,3.90
2023-02-02T01:27:07.558Z,3.90
2023-02-02T01:32:11.591Z,3.80
2023-02-02T01:37:14.408Z,3.80
2023-02-02T01:42:22.701Z,3.80
2023-02-02T01:47:31.302Z,3.90
2023-02-02T01:52:35.627Z,3.90
2023-02-02T01:57:45.433Z,3.90
2023-02-02T02:02:49.635Z,3.90
2023-02-02T02:08:08.339Z,3.90
2023-02-02T02:13:12.510Z,3.90
2023-02-02T02:18:44.271Z,3.90
2023-02-02T02:24:38.114Z,4.00
2023-02-02T02:30:05.307Z,4.00
2023-02-02T02:35:32.509Z,4.00
2023-02-02T02:40:47.878Z,4.00
2023-02-02T02:45:51.342Z,4.00
2023-02-02T02:50:54.265Z,4.00
2023-02-02T02:56:30.597Z,4.00
2023-02-02T03:02:22.794Z,3.90
2023-02-02T03:07:58.514Z,3.90
2023-02-02T03:13:06.409Z,4.00
2023-02-02T03:18:09.965Z,4.00
2023-02-02T03:23:14.222Z,4.00
2023-02-02T03:28:18.924Z,4.10
2023-02-02T03:33:22.734Z,4.20
2023-02-02T03:38:25.626Z,4.20
2023-02-02T03:43:28.864Z,4.20
2023-02-02T03:48:35.475Z,4.10
2023-02-02T03:53:40.506Z,4.10
2023-02-02T03:58:44.232Z,4.10
2023-02-02T04:03:47.054Z,4.00
2023-02-02T04:08:50.343Z,3.90
2023-02-02T04:13:53.241Z,3.90
2023-02-02T04:18:56.181Z,3.80
2023-02-02T04:23:59.390Z,3.80
2023-02-02T04:29:02.253Z,3.70
2023-02-02T04:34:05.255Z,3.60
2023-02-02T04:39:13.397Z,3.60
2023-02-02T04:44:17.034Z,3.50
2023-02-02T04:49:20.267Z,3.40
2023-02-02T04:54:23.067Z,3.40
2023-02-02T04:59:30.299Z,3.40
2023-02-02T05:04:33.225Z,3.40
2023-02-02T05:09:36.159Z,3.40
2023-02-02T05:14:39.412Z,3.40
2023-02-02T05:19:42.844Z,3.30
2023-02-02T05:24:46.704Z,3.30
2023-02-02T05:29:49.602Z,3.30
2023-02-02T05:34:52.551Z,3.30
2023-02-02T05:39:55.529Z,3.30
2023-02-02T05:44:58.568Z,3.30
2023-02-02T05:50:02.642Z,3.20
2023-02-02T05:55:06.442Z,3.20
2023-02-02T06:00:10.491Z,3.30
2023-02-02T06:05:13.622Z,3.20
2023-02-02T06:10:17.047Z,3.20
2023-02-02T06:15:20.230Z,3.20
2023-02-02T06:20:23.200Z,3.10
2023-02-02T06:25:26.598Z,3.10
2023-02-02T06:30:29.634Z,3.20
2023-02-02T06:35:32.720Z,3.20
2023-02-02T06:40:35.833Z,3.30
2023-02-02T06:45:40.534Z,3.30
2023-02-02T06:50:43.490Z,3.30
2023-02-02T06:55:54.726Z,3.40
2023-02-02T07:01:10.832Z,3.40
2023-02-02T07:06:26.815Z,3.50
2023-02-02T07:11:32.989Z,3.50
2023-02-02T07:16:37.926Z,3.60
2023-02-02T07:21:40.821Z,3.70
2023-02-02T07:26:43.625Z,3.90
2023-02-02T07:31:46.856Z,4.20
2023-02-02T07:36:50.077Z,4.50
2023-02-02T07:41:53.050Z,4.70
2023-02-02T07:46:56.062Z,4.70
2023-02-02T07:51:58.922Z,4.50
2023-02-02T07:57:02.333Z,4.40
2023-02-02T08:02:05.496Z,4.30
2023-02-02T08:07:08.697Z,4.30
2023-02-02T08:12:11.775Z,4.40
2023-02-02T08:17:15.004Z,4.40
2023-02-02T08:22:20.220Z,4.50
2023-02-02T08:27:23.235Z,4.60
2023-02-02T08:32:26.186Z,4.70
2023-02-02T08:37:29.043Z,4.80
2023-02-02T08:42:32.068Z,4.90
2023-02-02T08:47:35.015Z,4.90
2023-02-02T08:52:38.081Z,5.00
2023-02-02T08:57:41.044Z,5.10
2023-02-02T09:02:43.979Z,5.10
2023-02-02T09:07:49.255Z,5.20
2023-02-02T09:12:52.414Z,5.30
2023-02-02T09:17:55.822Z,5.30
2023-02-02T09:22:58.733Z,5.30
2023-02-02T09:28:01.708Z,5.30
2023-02-02T09:33:05.203Z,5.40
2023-02-02T09:38:08.508Z,5.60
2023-02-02T09:43:45.307Z,5.80
2023-02-02T09:49:05.818Z,6.10
2023-02-02T09:54:21.120Z,6.30
2023-02-02T09:59:35.747Z,6.30
2023-02-02T10:04:42.169Z,6.40
2023-02-02T10:10:00.339Z,6.50
2023-02-02T10:15:17.867Z,6.70
2023-02-02T10:20:44.796Z,6.80
2023-02-02T10:26:20.112Z,6.90
2023-02-02T10:32:25.102Z,7.80
2023-02-02T10:37:57.106Z,8.70
2023-02-02T10:43:54.547Z,9.20
2023-02-02T10:49:41.914Z,9.40
2023-02-02T10:54:59.128Z,8.90
2023-02-02T11:00:28.775Z,8.30
2023-02-02T11:05:50.874Z,7.90
2023-02-02T11:10:56.943Z,7.60
2023-02-02T11:16:44.457Z,7.50
2023-02-02T11:22:04.598Z,7.30
2023-02-02T11:27:27.833Z,7.30
2023-02-02T11:32:33.200Z,7.20
2023-02-02T11:37:40.326Z,7.00
2023-02-02T11:42:47.886Z,7.00
2023-02-02T11:47:51.911Z,7.00
2023-02-02T11:52:56.799Z,7.00
2023-02-02T11:58:30.142Z,7.00
2023-02-02T12:03:33.034Z,7.00
2023-02-02T12:08:36.145Z,7.00
2023-02-02T12:14:00.397Z,7.00
2023-02-02T12:19:32.859Z,7.00
2023-02-02T12:24:45.730Z,7.10
2023-02-02T12:30:00.245Z,7.10
2023-02-02T12:35:36.371Z,7.20
2023-02-02T12:41:00.991Z,7.10
2023-02-02T12:46:38.274Z,7.10
2023-02-02T12:52:12.373Z,7.00
2023-02-02T12:57:37.896Z,6.90
2023-02-02T13:03:09.616Z,6.90
2023-02-02T13:08:42.661Z,7.00
2023-02-02T13:13:45.688Z,7.00
2023-02-02T13:19:04.852Z,7.00
2023-02-02T13:24:18.341Z,7.00
2023-02-02T13:29:42.665Z,6.90
2023-02-02T13:34:59.845Z,6.90
2023-02-02T13:40:29.273Z,6.80
2023-02-02T13:46:25.258Z,6.80
2023-02-02T13:51:31.311Z,6.70
2023-02-02T13:56:51.663Z,6.60
2023-02-02T14:01:57.037Z,6.50
2023-02-02T14:12:11.388Z,6.60
2023-02-02T14:17:14.305Z,6.60
2023-02-02T14:22:37.919Z,6.60
2023-02-02T14:27:57.052Z,6.60
2023-02-02T14:33:21.922Z,6.50
2023-02-02T14:38:46.240Z,6.50
2023-02-02T14:43:52.336Z,6.50
2023-02-02T14:48:57.203Z,6.40
2023-02-02T14:54:06.391Z,6.40
2023-02-02T14:59:27.036Z,6.30
2023-02-02T15:04:30.272Z,6.30
2023-02-02T15:09:38.240Z,6.20
2023-02-02T15:15:16.622Z,6.20
2023-02-02T15:20:43.046Z,6.10
2023-02-02T15:26:19.805Z,6.00
2023-02-02T15:31:46.029Z,5.90
2023-02-02T15:36:53.830Z,5.80
2023-02-02T15:42:19.175Z,5.80
2023-02-02T15:47:31.470Z,5.70
2023-02-02T15:52:38.114Z,5.70
2023-02-02T15:57:45.566Z,5.60
2023-02-02T16:02:55.621Z,5.50
2023-02-02T16:08:06.656Z,5.40
2023-02-02T16:13:28.569Z,5.40
2023-02-02T16:18:31.505Z,5.30
2023-02-02T16:23:37.218Z,5.30
2023-02-02T16:28:41.000Z,5.20
2023-02-02T16:33:45.662Z,5.20
2023-02-02T16:38:52.272Z,5.10
2023-02-02T16:43:55.653Z,5.10
2023-02-02T16:49:02.006Z,5.00
2023-02-02T16:54:07.968Z,5.00
2023-02-02T16:59:23.018Z,5.00
2023-02-02T17:04:30.013Z,4.90
2023-02-02T17:09:36.495Z,4.90
2023-02-02T17:14:54.161Z,4.80
2023-02-02T17:19:57.267Z,4.80
2023-02-02T17:25:00.313Z,4.70
2023-02-02T17:30:05.634Z,4.70
2023-02-02T17:42:01.046Z,4.70
2023-02-02T17:47:13.201Z,4.70
2023-02-02T17:52:16.200Z,4.70
2023-02-02T17:57:19.141Z,4.60
2023-02-02T18:02:22.219Z,4.50
2023-02-02T18:07:25.967Z,4.50
2023-02-02T18:12:28.725Z,4.50
2023-02-02T18:17:33.976Z,4.50
2023-02-02T18:22:37.643Z,4.40
2023-02-02T18:27:40.812Z,4.40
2023-02-02T18:32:44.073Z,4.30
2023-02-02T18:37:47.280Z,4.30
2023-02-02T18:42:50.505Z,4.30
2023-02-02T18:47:53.236Z,4.30
2023-02-02T18:52:56.968Z,4.30
2023-02-02T18:57:59.971Z,4.30
2023-02-02T19:03:02.873Z,4.30
2023-02-02T19:08:05.962Z,4.20
2023-02-02T19:13:20.396Z,4.20
2023-02-02T19:18:24.615Z,4.10
2023-02-02T19:23:32.371Z,4.10
2023-02-02T19:28:35.292Z,4.10
2023-02-02T19:33:45.636Z,4.10
2023-02-02T19:38:55.526Z,4.10
2023-02-02T19:44:19.284Z,4.10
2023-02-02T19:49:36.416Z,4.00
2023-02-02T19:54:48.007Z,4.00
2023-02-02T19:59:52.702Z,3.90
2023-02-02T20:05:22.108Z,3.90
2023-02-02T20:10:44.590Z,3.80
2023-02-02T20:15:51.171Z,3.80
2023-02-02T20:20:57.145Z,3.70
2023-02-02T20:26:07.434Z,3.70
2023-02-02T20:31:17.309Z,3.70
2023-02-02T20:36:40.977Z,3.60
2023-02-02T20:41:44.048Z,3.60
2023-02-02T20:46:47.194Z,3.70
2023-02-02T20:51:50.174Z,3.70
2023-02-02T20:56:54.474Z,3.60
2023-02-02T21:01:59.046Z,3.60
2023-02-02T21:07:02.105Z,3.60
2023-02-02T21:12:05.235Z,3.60
2023-02-02T21:17:15.216Z,3.60
2023-02-02T21:22:19.188Z,3.60
2023-02-02T21:27:22.193Z,3.60
2023-02-02T21:32:25.301Z,3.60
2023-02-02T21:37:29.245Z,3.60
2023-02-02T21:42:35.517Z,3.60
2023-02-02T21:48:02.671Z,3.50
2023-02-02T21:53:23.135Z,3.50
2023-02-02T21:58:40.226Z,3.50
2023-02-02T22:03:46.797Z,3.50
2023-02-02T22:08:51.192Z,3.50
2023-02-02T22:13:55.777Z,3.40
2023-02-02T22:19:01.146Z,3.40
2023-02-02T22:24:04.521Z,3.40
2023-02-02T22:29:18.669Z,3.30
2023-02-02T22:34:21.623Z,3.30
2023-02-02T22:39:24.520Z,3.30
2023-02-02T22:44:27.676Z,3.30
2023-02-02T22:49:30.362Z,3.30
2023-02-02T22:54:33.482Z,3.20
2023-02-02T22:59:36.483Z,3.20
2023-02-02T23:04:39.495Z,3.10
2023-02-02T23:09:42.363Z,3.00
2023-02-02T23:14:45.375Z,3.00
2023-02-02T23:19:48.370Z,2.90
2023-02-02T23:24:51.294Z,2.90
2023-02-02T23:29:54.831Z,2.80
2023-02-02T23:34:57.814Z,2.70
2023-02-02T23:40:01.301Z,2.60
2023-02-02T23:45:04.826Z,2.60
2023-02-02T23:50:09.447Z,2.60
2023-02-02T23:55:12.568Z,2.60
